Friday, July 25, 2014
20:42 UTC
  |  Log In   |  Register Free
Airport Search:

John F Kennedy Memorial Airport
(KASX)

John F Kennedy Memorial Airport Diagram
No Airport Diagram Available

FAA data valid effective July 24, 2014 until September 18, 2014 (unless otherwise noted).

 
 
 
 
 
 
 
 
 
 
 
 
 
 

Current Aviation Weather for John F Kennedy Memorial Airport (KASX)

The most recent METAR observation for KASX was updated at: 1853 UTC
METAR Summary (Translated METAR)
KASX
251853Z AUTO 23005KT 10SM OVC023 22/18 A2982 RMK AO2 SLP097 T02220178
KIWD
(32.5 nm SE from KASX)
251535Z AUTO 19007KT 10SM BKN090 19/17 A2982 RMK AO1
TAF Summary (Translated TAF)
KIWD
(32.5 nm SE from KASX)
251722Z 2518/2618 19012KT P6SM -SHRA BKN020 TEMPO 2519/2523 SCT020 OVC035 FM260600 23005KT 2SM BR BKN006 FM261200 27005KT P6SM BKN015 FM261400 28009KT P6SM SCT025 AMD NOT SKED
KHYR
(38.2 nm SW from KASX)
251721Z 2518/2618 17009G14KT P6SM OVC015 FM252000 20006KT P6SM VCSH BKN018 OVC040 TEMPO 2521/2523 5SM TSRA BR OVC022CB FM260300 21006KT P6SM SCT015 BKN025 FM260600 24003KT 3SM BR BKN009 OVC022 FM261100 28006KT 6SM BR SCT014 FM261400 27010KT P6SM SKC
  Airport Weather Conditions for KASX

 Current Weather at ASX
74° F
Overcast
Southwest winds at 8.1 mph
ASX NOAA Radar

Pressure: 29.81 in
Humidity: 76%
Wind: Southwest at 8.1 MPH (7 KT)
Dew Point: 66.0°F
Visibility: 10.00 mi


Airport Weather Forecast for KASX

Translated METAR and TAF for KASX
Translated METAR for KASX (2035 UTC 25 July 2014)
found at http://aviationweather.gov/adds/metars/
 
METAR text: KASX 251953Z AUTO 22007KT 10SM BKN026 OVC043 23/19 A2981 RMK AO2 SLP092 T02330189
Conditions at: KASX (ASHLAND , WI, US) observed 1953 UTC 25 July 2014
Temperature: 23.3°C (74°F)
Dewpoint: 18.9°C (66°F) [RH = 76%]
Pressure (altimeter): 29.81 inches Hg (1009.6 mb)
[Sea-level pressure: 1009.2 mb]
Winds: from the SW (220 degrees) at 8 MPH (7 knots; 3.6 m/s)
Visibility: 10 or more miles (16+ km)
Ceiling: 2600 feet AGL
Clouds: broken clouds at 2600 feet AGL
overcast cloud deck at 4300 feet AGL
Weather: automated observation with no human augmentation;
there may or may not be significant weather present at this time
Translated TAF for KASX

There is no translated TAF available for this airport

Find All Airport Services Find A Hotel Find A Rental Car Find A Golf Course Find A Restaurant $100 Hamburger



FBO's on the Field
FBO Company Facility Photos Services Transportation Aviation Fuel Prices: Prices include tax
Catering Weather Repair Courtesy Rental Type 100LL JetA JetA+ MOGAS 8087
 
John F Kennedy Memorial Airport

This FBO has not yet been rated
FS:Phillips66
Last Updated: Jul-10
Login to update fuel prices
SS:
Contact John F Kennedy Memorial AirportMore FBO Information
 
Add another FBO Facility Photos Catering Weather Repair Courtesy Rental Type 100LL JetA JetA+ MOGAS 8087
Services Transportation Aviation Fuel Prices: Prices include tax


GlobalAir.com Airport Resource Center model-print
model-print
model-print
model-print